Providence, Rhode Island
Traffic Map
Current Weather Conditions
Providence, Rhode Island
Clear
Clear
19°
Feels Like: 19°
Wind Chill: 19° Ceiling: Unl
Heat Index: 19° Visibility: 10mi
Dew Point: 12° Wind: 3mph
Humidity: 65% Direction: 160° (SSE)
Pressure: 30.24in Gusts: 0mph
Raw Report DataKPVD 261151Z 16003KT 10SM CLR 19/12 A3024 RMK AO2 SLP239 T01890122 10189 20139 55000
Traffic Incident Summary
Active as of:
Severity:
Category:
InformationThere was an issue retrieving the traffic information for this location. Please try a different location or try again shortly.
Advertisements
Track Severe Weather on mobile